M/V Crosby Hustler — WDA3941 — position and weather

sailwx.info

Track history (hours):
 
Tides and Currents Weather Stations Pressure Air Temp Water Temp Dewpoint Dewpoint Depression Visibility Wind Speed Wind Dir Waves Ship Positions

M/V Crosby Hustler

Owner: CROSBY INLAND MARINE LLC, GOLDEN MEADOW, LA. More information available from US FCC via Universal Licensing System and Coast Guard Vessel Documentation Center.

Last reported at 2015-Aug-31 08:33 UTC. Time now 2015-Aug-31 08:48 UTC.
Position N 29°35' W 094°56'.

Length 18 m; draft 9 m.

Type: Tug. MMSI: 366804030.

Date/timePositionNaut miles runAvg speedWind from/ knotsBaromVisibWave heightAir tempDewpointWater temp
2015-Aug-31 08:33N 29°35' W 094°56'5 5.3
2015-Aug-31 07:33N 29°31' W 094°53'10 4.5
2015-Aug-31 05:17N 29°22' W 094°48'  
2015-Aug-21 22:03N 29°26' W 094°50'4 6.4
2015-Aug-21 21:30N 29°29' W 094°52'6 6.0
2015-Aug-21 20:34N 29°34' W 094°55'6 5.6
2015-Aug-21 19:34N 29°38' W 094°58'6 5.6
2015-Aug-21 18:34N 29°43' W 095°01'5 2.1
2015-Aug-21 16:03N 29°47' W 095°06'0 0.6
2015-Aug-21 15:31N 29°46' W 095°06'  
Track history (hours):
 
Tides and Currents Weather Stations Pressure Air Temp Water Temp Dewpoint Dewpoint Depression Visibility Wind Speed Wind Dir Waves Ship Positions

M/V Crosby Hustler

Owner: CROSBY INLAND MARINE LLC, GOLDEN MEADOW, LA. More information available from US FCC via Universal Licensing System and Coast Guard Vessel Documentation Center.

Last reported at 2015-Aug-31 08:33 UTC. Time now 2015-Aug-31 08:48 UTC.
Position N 29°35' W 094°56'.

Length 18 m; draft 9 m.

Type: Tug. MMSI: 366804030.

Date/timePositionNaut miles runAvg speedWind from/ knotsBaromVisibWave heightAir tempDewpointWater temp
2015-Aug-31 08:33N 29°35' W 094°56'5 5.3
2015-Aug-31 07:33N 29°31' W 094°53'10 4.5
2015-Aug-31 05:17N 29°22' W 094°48'  
2015-Aug-21 22:03N 29°26' W 094°50'4 6.4
2015-Aug-21 21:30N 29°29' W 094°52'6 6.0
2015-Aug-21 20:34N 29°34' W 094°55'6 5.6
2015-Aug-21 19:34N 29°38' W 094°58'6 5.6
2015-Aug-21 18:34N 29°43' W 095°01'5 2.1
2015-Aug-21 16:03N 29°47' W 095°06'0 0.6
2015-Aug-21 15:31N 29°46' W 095°06'  

Dump ship's entire track history